Time;durP1;ratioP1;P1;durP2;ratioP2;P2;SDS_P1;SDS_P2;PMS_P1;PMS_P2;Temp;Humidity;BMP_temperature;BMP_pressure;BME280_temperature;BME280_humidity;BME280_pressure;Samples;Min_cycle;Max_cycle;Signal;HPM_P1;HPM_P2
2022/10/21 00:00:27;;;;;;;30.27;27.73;;;18.50;99.90;;;;;;4941768;28;20400;-93
2022/10/21 00:02:54;;;;;;;28.27;26.23;;;18.50;99.90;;;;;;4940468;29;20058;-93
2022/10/21 00:05:20;;;;;;;31.10;28.60;;;18.50;99.90;;;;;;4945446;29;20039;-93
2022/10/21 00:07:46;;;;;;;25.55;23.80;;;18.40;99.90;;;;;;4960095;29;20392;-93
2022/10/21 00:10:12;;;;;;;23.08;21.48;;;18.40;99.90;;;;;;4944217;28;20127;-93
2022/10/21 00:12:38;;;;;;;22.85;21.25;;;18.20;99.90;;;;;;4931034;29;20039;-93
2022/10/21 00:15:05;;;;;;;22.17;20.52;;;18.20;99.90;;;;;;4946667;28;20031;-94
2022/10/21 00:17:34;;;;;;;22.48;20.48;;;18.20;99.90;;;;;;4960320;29;20027;-94
2022/10/21 00:20:01;;;;;;;22.05;20.35;;;18.10;99.90;;;;;;4923405;28;20023;-94
2022/10/21 00:22:27;;;;;;;20.88;19.60;;;18.20;99.90;;;;;;4919918;29;20055;-92
2022/10/21 00:24:53;;;;;;;21.55;20.15;;;18.20;99.90;;;;;;4934420;29;20035;-94
2022/10/21 00:27:19;;;;;;;21.75;20.27;;;18.30;99.90;;;;;;4947849;29;20055;-93
2022/10/21 00:29:46;;;;;;;21.27;19.92;;;18.30;99.90;;;;;;4940748;29;20043;-93
2022/10/21 00:32:12;;;;;;;20.77;19.48;;;18.30;99.80;;;;;;4902248;29;20043;-93
2022/10/21 00:34:41;;;;;;;21.27;19.77;;;18.30;99.70;;;;;;4934982;29;20054;-93
2022/10/21 00:37:09;;;;;;;21.15;19.88;;;18.30;99.70;;;;;;4934132;29;20032;-92
2022/10/21 00:39:36;;;;;;;22.75;21.40;;;18.30;99.70;;;;;;4903439;29;20051;-93
2022/10/21 00:42:03;;;;;;;21.10;19.90;;;18.30;99.70;;;;;;4934860;29;20066;-93
2022/10/21 00:44:29;;;;;;;21.05;19.50;;;18.30;99.70;;;;;;4902176;29;20074;-93
2022/10/21 00:46:57;;;;;;;20.83;19.58;;;18.30;99.70;;;;;;4934657;28;20035;-93
2022/10/21 00:49:56;;;;;;;21.33;19.88;;;18.20;99.80;;;;;;4950712;28;20105;-93
2022/10/21 00:52:22;;;;;;;29.33;27.45;;;18.20;99.90;;;;;;4949938;28;20048;-93
2022/10/21 00:54:49;;;;;;;29.75;27.95;;;18.20;99.90;;;;;;4951074;29;20036;-92
2022/10/21 00:57:15;;;;;;;26.65;24.95;;;18.30;99.90;;;;;;4914635;29;20501;-92
2022/10/21 00:59:45;;;;;;;28.95;26.77;;;18.30;99.90;;;;;;4932318;29;20028;-93
2022/10/21 01:02:11;;;;;;;33.20;31.00;;;18.30;99.90;;;;;;4933408;29;20036;-91
2022/10/21 01:04:37;;;;;;;28.35;26.35;;;18.30;99.90;;;;;;4947234;28;20055;-92
2022/10/21 01:07:03;;;;;;;27.88;25.98;;;18.30;99.90;;;;;;4902488;29;20043;-92
2022/10/21 01:09:29;;;;;;;25.90;24.02;;;18.30;99.90;;;;;;4903295;29;20051;-92
2022/10/21 01:11:56;;;;;;;23.05;21.05;;;18.20;99.90;;;;;;4950289;28;20044;-92
2022/10/21 01:14:33;;;;;;;22.77;21.15;;;18.10;99.90;;;;;;4950154;29;20055;-93
2022/10/21 01:17:38;;;;;;;21.83;20.27;;;18.10;99.90;;;;;;4949098;28;20035;-91
2022/10/21 01:20:28;;;;;;;22.15;17.67;;;18.00;99.90;;;;;;4914489;29;20047;-92
2022/10/21 01:23:37;;;;;;;22.58;20.48;;;17.90;99.90;;;;;;4914731;29;20048;-93
2022/10/21 01:26:28;;;;;;;21.75;19.85;;;17.80;99.90;;;;;;4905445;29;20044;-93
2022/10/21 01:28:54;;;;;;;;;;;17.90;99.90;;;;;;4932604;29;20048;-93
2022/10/21 01:31:40;;;;;;;20.73;19.17;;;17.80;99.90;;;;;;4929646;29;20392;-93
2022/10/21 01:34:14;;;;;;;21.23;18.98;;;17.70;99.90;;;;;;4929149;29;20060;-93
2022/10/21 01:36:46;;;;;;;23.40;18.48;;;17.70;99.90;;;;;;4911802;29;20043;-93
2022/10/21 01:39:21;;;;;;;21.10;19.15;;;17.70;99.90;;;;;;4899772;29;20036;-94
2022/10/21 01:42:04;;;;;;;21.92;20.15;;;17.70;99.90;;;;;;4924903;29;20398;-91
2022/10/21 01:44:48;;;;;;;22.80;21.10;;;17.80;99.90;;;;;;4899012;29;20048;-93
2022/10/21 01:47:16;;;;;;;22.42;20.52;;;17.90;99.90;;;;;;4869305;29;20032;-93
2022/10/21 01:49:52;;;;;;;22.02;20.27;;;17.80;99.90;;;;;;4898953;29;20036;-93
2022/10/21 01:52:18;;;;;;;19.63;18.05;;;17.80;99.90;;;;;;4893578;29;20040;-93
2022/10/21 01:54:55;;;;;;;21.50;19.60;;;17.70;99.90;;;;;;4940788;28;20465;-92
2022/10/21 01:57:22;;;;;;;20.60;19.10;;;17.70;99.90;;;;;;4932047;29;20055;-92
2022/10/21 01:59:48;;;;;;;20.05;18.33;;;17.60;99.90;;;;;;4934137;29;20039;-92
2022/10/21 02:02:14;;;;;;;22.08;20.42;;;17.60;99.90;;;;;;4930874;28;20412;-94
2022/10/21 02:04:41;;;;;;;21.65;20.20;;;17.70;99.90;;;;;;4934392;29;20035;-93
2022/10/21 02:07:07;;;;;;;21.73;19.92;;;17.70;99.90;;;;;;4914124;29;20050;-93
2022/10/21 02:09:33;;;;;;;23.00;20.85;;;17.70;99.90;;;;;;4930801;29;20107;-93
2022/10/21 02:12:00;;;;;;;21.08;19.35;;;17.70;99.90;;;;;;4936035;29;20388;-93
2022/10/21 02:14:35;;;;;;;21.35;19.77;;;17.70;99.90;;;;;;4954923;28;20048;-93
2022/10/21 02:17:01;;;;;;;20.52;18.98;;;17.70;99.90;;;;;;4942976;28;20032;-92
2022/10/21 02:19:27;;;;;;;19.48;18.00;;;17.60;99.90;;;;;;4917566;29;20059;-92
2022/10/21 02:21:54;;;;;;;19.52;18.20;;;17.60;99.90;;;;;;4923615;29;20039;-92
2022/10/21 02:24:26;;;;;;;19.50;18.42;;;17.60;99.90;;;;;;4959912;28;20040;-91
2022/10/21 02:26:52;;;;;;;18.20;16.80;;;17.60;99.90;;;;;;4951372;28;20036;-93
2022/10/21 02:29:26;;;;;;;18.92;17.35;;;17.70;99.90;;;;;;4935425;29;20034;-91
2022/10/21 02:32:20;;;;;;;17.27;15.93;;;17.60;99.90;;;;;;4956266;28;20496;-92
2022/10/21 02:35:07;;;;;;;17.23;16.10;;;17.70;99.90;;;;;;4936858;29;20036;-91
2022/10/21 02:37:48;;;;;;;17.65;16.55;;;17.70;99.90;;;;;;4928569;29;20036;-92
2022/10/21 02:40:16;;;;;;;;;;;17.80;99.90;;;;;;4934461;29;20043;-92
2022/10/21 02:42:43;;;;;;;17.70;16.38;;;17.80;99.90;;;;;;4963893;28;19919;-91
2022/10/21 02:45:09;;;;;;;17.83;16.80;;;17.80;99.90;;;;;;4967987;28;20027;-91
2022/10/21 02:47:37;;;;;;;18.70;17.50;;;17.80;99.90;;;;;;4936226;29;20354;-92
2022/10/21 02:50:03;;;;;;;18.05;16.60;;;17.80;99.90;;;;;;4920281;29;20039;-91
2022/10/21 02:52:29;;;;;;;18.17;16.88;;;17.80;99.90;;;;;;4905599;29;20046;-91
2022/10/21 02:54:55;;;;;;;18.63;17.15;;;17.80;99.90;;;;;;4936344;29;20393;-91
2022/10/21 02:57:22;;;;;;;19.15;17.70;;;17.80;99.90;;;;;;4952731;29;20039;-92
2022/10/21 02:59:48;;;;;;;19.45;18.15;;;17.90;99.90;;;;;;4952346;28;20404;-89
2022/10/21 03:02:14;;;;;;;19.83;18.27;;;18.00;99.90;;;;;;4921077;29;20099;-91
2022/10/21 03:04:40;;;;;;;18.40;17.30;;;18.00;99.90;;;;;;4951225;28;20043;-92
2022/10/21 03:07:06;;;;;;;19.38;18.02;;;18.00;99.90;;;;;;4918488;29;20058;-91
2022/10/21 03:09:32;;;;;;;18.83;17.73;;;18.00;99.90;;;;;;4952594;29;20035;-90
2022/10/21 03:11:58;;;;;;;18.77;17.58;;;18.00;99.90;;;;;;4936431;29;20038;-91
2022/10/21 03:14:24;;;;;;;19.83;18.38;;;18.00;99.90;;;;;;4952316;28;20027;-92
2022/10/21 03:16:50;;;;;;;18.88;17.52;;;17.90;99.90;;;;;;4950715;28;20039;-91
2022/10/21 03:19:16;;;;;;;17.88;16.58;;;17.90;99.90;;;;;;4936557;29;20044;-91
2022/10/21 03:21:43;;;;;;;18.13;16.90;;;18.00;99.90;;;;;;4934754;29;20051;-90
2022/10/21 03:24:09;;;;;;;19.35;17.65;;;17.90;99.90;;;;;;4952102;29;20059;-92
2022/10/21 03:26:35;;;;;;;17.65;16.33;;;18.00;99.90;;;;;;4935944;29;20044;-91
2022/10/21 03:29:01;;;;;;;16.65;15.57;;;18.00;99.90;;;;;;4951510;29;20043;-93
2022/10/21 03:31:27;;;;;;;18.80;17.52;;;18.00;99.90;;;;;;4934802;29;20040;-89
2022/10/21 03:33:53;;;;;;;18.85;17.45;;;18.00;99.90;;;;;;4934544;29;20040;-93
2022/10/21 03:38:47;;;;;;;18.10;16.65;;;18.10;99.90;;;;;;5087488;23;20526;-92
2022/10/21 03:41:14;;;;;;;20.52;18.88;;;18.10;99.90;;;;;;5030254;23;20055;-92
2022/10/21 03:43:40;;;;;;;19.67;18.05;;;18.10;99.90;;;;;;4939356;29;20050;-92
2022/10/21 03:46:06;;;;;;;19.48;18.20;;;18.00;99.90;;;;;;4938605;28;20047;-90
2022/10/21 03:48:32;;;;;;;18.52;17.42;;;17.90;99.90;;;;;;4955358;28;20039;-89
2022/10/21 03:50:58;;;;;;;18.25;16.63;;;17.90;99.90;;;;;;4939859;28;20034;-90
2022/10/21 03:53:24;;;;;;;19.13;18.02;;;18.00;99.90;;;;;;4936122;29;20039;-90
2022/10/21 03:55:50;;;;;;;18.15;16.92;;;17.90;99.90;;;;;;4944757;28;20043;-88
2022/10/21 03:58:17;;;;;;;18.90;17.52;;;18.00;99.90;;;;;;4955184;28;20038;-91
2022/10/21 04:00:43;;;;;;;19.50;18.30;;;18.00;99.90;;;;;;4952772;28;20035;-91
2022/10/21 04:03:09;;;;;;;17.80;16.58;;;17.90;99.90;;;;;;4955361;28;20039;-90
2022/10/21 04:05:35;;;;;;;18.05;16.75;;;17.90;99.90;;;;;;4942048;28;20047;-91
2022/10/21 04:08:01;;;;;;;17.70;16.52;;;17.80;99.90;;;;;;4949403;29;20035;-93
2022/10/21 04:10:27;;;;;;;17.33;15.93;;;17.80;99.90;;;;;;4941412;29;20039;-93
2022/10/21 04:12:54;;;;;;;18.63;17.33;;;17.70;99.90;;;;;;4946285;29;20038;-90
2022/10/21 04:15:20;;;;;;;18.20;16.52;;;17.60;99.90;;;;;;4945085;28;20035;-90
2022/10/21 04:17:46;;;;;;;19.27;17.45;;;17.60;99.90;;;;;;4939724;28;20042;-92
2022/10/21 04:20:12;;;;;;;18.52;17.20;;;17.60;99.90;;;;;;4954777;28;20492;-91
2022/10/21 04:22:38;;;;;;;18.25;16.85;;;17.60;99.90;;;;;;4941074;29;20039;-93
2022/10/21 04:25:04;;;;;;;19.27;17.60;;;17.60;99.90;;;;;;4953656;28;20040;-93
2022/10/21 04:27:31;;;;;;;16.13;15.00;;;17.60;99.90;;;;;;4965738;29;20027;-93
2022/10/21 04:29:57;;;;;;;18.27;16.65;;;17.60;99.90;;;;;;4955781;29;20046;-93
2022/10/21 04:32:23;;;;;;;18.27;16.50;;;17.60;99.90;;;;;;4955465;28;20054;-93
2022/10/21 04:34:49;;;;;;;18.08;16.52;;;17.60;99.90;;;;;;4972710;28;20032;-94
2022/10/21 04:37:15;;;;;;;18.83;17.08;;;17.60;99.90;;;;;;4972336;29;20049;-94
2022/10/21 04:39:41;;;;;;;18.35;16.63;;;17.60;99.90;;;;;;4955963;29;20039;-94
2022/10/21 04:42:07;;;;;;;18.45;17.05;;;17.60;99.90;;;;;;4957433;29;20031;-93
2022/10/21 04:44:33;;;;;;;18.95;16.17;;;17.60;99.90;;;;;;4955444;29;20030;-93
2022/10/21 04:46:59;;;;;;;17.40;15.45;;;17.70;99.90;;;;;;4956775;28;20031;-93
2022/10/21 04:49:25;;;;;;;17.92;16.33;;;17.60;99.90;;;;;;4955926;29;20039;-93
2022/10/21 04:51:51;;;;;;;18.70;16.77;;;17.60;99.90;;;;;;4972569;29;20026;-93
2022/10/21 04:54:18;;;;;;;19.38;17.55;;;17.60;99.90;;;;;;4955645;29;20034;-94
2022/10/21 04:56:44;;;;;;;20.38;17.52;;;17.60;99.90;;;;;;4953436;29;20053;-94
2022/10/21 04:59:10;;;;;;;18.08;16.08;;;17.50;99.90;;;;;;4958059;29;20027;-93
2022/10/21 05:01:36;;;;;;;17.45;15.85;;;17.60;99.90;;;;;;4960898;28;20040;-93
2022/10/21 05:04:02;;;;;;;18.67;16.85;;;17.50;99.90;;;;;;4924136;29;20414;-92
2022/10/21 05:06:28;;;;;;;18.25;16.50;;;17.60;99.90;;;;;;4939631;29;20020;-89
2022/10/21 05:08:54;;;;;;;17.65;15.88;;;17.60;99.90;;;;;;4956517;29;20019;-94
2022/10/21 05:11:20;;;;;;;18.92;17.15;;;17.50;99.90;;;;;;4938555;29;20034;-94
2022/10/21 05:13:46;;;;;;;20.30;17.02;;;17.60;99.90;;;;;;4936240;29;20042;-93
2022/10/21 05:16:12;;;;;;;19.50;15.60;;;17.60;99.90;;;;;;4959691;28;20043;-94
2022/10/21 05:18:38;;;;;;;18.73;17.13;;;17.60;99.90;;;;;;4971303;28;20028;-93
2022/10/21 05:21:04;;;;;;;19.30;15.90;;;17.60;99.90;;;;;;4972147;29;20020;-93
2022/10/21 05:23:31;;;;;;;18.10;16.35;;;17.60;99.90;;;;;;4956172;29;20036;-93
2022/10/21 05:25:58;;;;;;;19.05;16.92;;;17.60;99.90;;;;;;4938086;29;20044;-93
2022/10/21 05:28:24;;;;;;;18.30;16.63;;;17.50;99.90;;;;;;4956293;29;20043;-93
2022/10/21 05:30:51;;;;;;;20.08;16.50;;;17.50;99.90;;;;;;4972548;28;20026;-94
2022/10/21 05:33:17;;;;;;;21.02;17.10;;;17.50;99.90;;;;;;4957531;29;20046;-94
2022/10/21 05:35:43;;;;;;;20.58;17.30;;;17.50;99.90;;;;;;4971864;29;20043;-92
2022/10/21 05:38:09;;;;;;;18.75;16.42;;;17.40;99.90;;;;;;4975215;28;20016;-93
2022/10/21 05:40:35;;;;;;;20.10;17.42;;;17.40;99.90;;;;;;4972460;29;20055;-93
2022/10/21 05:43:01;;;;;;;19.08;17.35;;;17.40;99.90;;;;;;4975176;29;20024;-94
2022/10/21 05:45:28;;;;;;;21.15;17.00;;;17.40;99.90;;;;;;4976534;28;20030;-93
2022/10/21 05:47:54;;;;;;;16.92;15.25;;;17.30;99.90;;;;;;4961937;29;20032;-93
2022/10/21 05:50:20;;;;;;;18.95;17.05;;;17.30;99.90;;;;;;4943739;28;20032;-93
2022/10/21 05:52:46;;;;;;;18.98;17.08;;;17.30;99.90;;;;;;4944661;29;20039;-93
2022/10/21 05:55:12;;;;;;;19.60;17.67;;;17.20;99.90;;;;;;4942728;29;20041;-94
2022/10/21 05:57:38;;;;;;;21.58;18.60;;;17.30;99.90;;;;;;4954894;29;20036;-94
2022/10/21 06:00:05;;;;;;;20.65;17.88;;;17.30;99.90;;;;;;4945442;28;20035;-93
2022/10/21 06:02:32;;;;;;;18.90;17.15;;;17.30;99.90;;;;;;4957827;29;20392;-93
2022/10/21 06:04:58;;;;;;;23.10;16.25;;;17.20;99.90;;;;;;4944767;29;20062;-92
2022/10/21 06:07:24;;;;;;;19.77;16.85;;;17.20;99.90;;;;;;4954622;28;20032;-88
2022/10/21 06:09:50;;;;;;;20.10;17.77;;;17.10;99.90;;;;;;4943464;29;20480;-91
2022/10/21 06:12:16;;;;;;;20.17;17.90;;;17.20;99.90;;;;;;4953296;29;20031;-85
2022/10/21 06:14:42;;;;;;;21.80;18.48;;;17.10;99.90;;;;;;4921616;29;20231;-87
2022/10/21 06:17:08;;;;;;;18.73;17.02;;;17.20;99.90;;;;;;4947154;28;20031;-89
2022/10/21 06:19:34;;;;;;;20.05;17.15;;;17.20;99.90;;;;;;4925504;29;20050;-87
2022/10/21 06:22:00;;;;;;;18.85;16.77;;;17.20;99.90;;;;;;4945291;28;20042;-89
2022/10/21 06:24:26;;;;;;;21.85;17.25;;;17.20;99.90;;;;;;4928284;28;20047;-90
2022/10/21 06:26:53;;;;;;;18.83;16.25;;;17.20;99.90;;;;;;4944665;28;20500;-88
2022/10/21 06:29:19;;;;;;;26.85;16.75;;;17.30;99.90;;;;;;4918845;29;20048;-91
2022/10/21 06:31:45;;;;;;;18.08;15.93;;;17.30;99.90;;;;;;4928823;28;20424;-84
2022/10/21 06:34:11;;;;;;;19.25;16.70;;;17.40;99.90;;;;;;4926307;29;20048;-86
2022/10/21 06:36:37;;;;;;;23.13;16.25;;;17.30;99.90;;;;;;4920739;29;20393;-90
2022/10/21 06:39:04;;;;;;;18.50;16.50;;;17.30;99.90;;;;;;4912995;29;20389;-86
2022/10/21 06:41:30;;;;;;;22.33;15.60;;;17.30;99.90;;;;;;4941073;29;20245;-88
2022/10/21 06:43:56;;;;;;;20.30;16.63;;;17.20;99.90;;;;;;4910924;29;20516;-88
2022/10/21 06:46:22;;;;;;;19.48;17.42;;;17.20;99.90;;;;;;4926827;28;20113;-88
2022/10/21 06:48:49;;;;;;;20.73;16.67;;;17.20;99.90;;;;;;4928204;29;20519;-87
2022/10/21 06:51:19;;;;;;;23.67;17.73;;;17.20;99.90;;;;;;4926980;29;20699;-87
2022/10/21 06:53:46;;;;;;;18.30;16.60;;;17.20;99.90;;;;;;4924236;29;20040;-85
2022/10/21 06:56:16;;;;;;;22.88;17.48;;;17.20;99.90;;;;;;4939929;29;20452;-85
2022/10/21 06:58:45;;;;;;;19.38;17.23;;;17.20;99.90;;;;;;4921750;29;20040;-88
2022/10/21 07:01:22;;;;;;;24.70;16.75;;;17.20;99.90;;;;;;4935064;28;20040;-87
2022/10/21 07:03:48;;;;;;;18.15;16.25;;;17.20;99.90;;;;;;4950466;28;20044;-86
2022/10/21 07:06:14;;;;;;;20.42;16.35;;;17.20;99.90;;;;;;4950861;28;20043;-87
2022/10/21 07:08:40;;;;;;;21.45;15.85;;;17.20;99.90;;;;;;4948488;29;20030;-89
2022/10/21 07:11:07;;;;;;;21.58;16.25;;;17.20;99.90;;;;;;4945596;29;20032;-88
2022/10/21 07:13:36;;;;;;;19.25;15.18;;;17.20;99.90;;;;;;4935669;29;20386;-88
2022/10/21 07:16:04;;;;;;;33.83;16.02;;;17.20;99.90;;;;;;4936261;28;20032;-89
2022/10/21 07:18:30;;;;;;;20.77;15.90;;;17.20;99.90;;;;;;4917377;29;20055;-92
2022/10/21 07:21:05;;;;;;;18.90;15.80;;;17.30;99.90;;;;;;4935575;29;20470;-90
2022/10/21 07:23:31;;;;;;;20.95;16.75;;;17.20;99.90;;;;;;4948725;29;20044;-86
2022/10/21 07:25:57;;;;;;;25.27;17.42;;;17.30;99.90;;;;;;4915666;29;20038;-86
2022/10/21 07:28:23;;;;;;;26.75;17.65;;;17.40;99.90;;;;;;4933617;29;20032;-87
2022/10/21 07:30:50;;;;;;;21.85;18.65;;;17.60;99.90;;;;;;4934154;28;20044;-86
2022/10/21 07:33:16;;;;;;;20.38;17.85;;;17.70;99.70;;;;;;4934544;29;20472;-88
2022/10/21 07:35:42;;;;;;;19.85;16.20;;;17.80;99.60;;;;;;4935448;29;20040;-85
2022/10/21 07:38:08;;;;;;;20.20;14.93;;;18.00;99.10;;;;;;4919788;29;20043;-87
2022/10/21 07:40:39;;;;;;;18.88;16.73;;;18.30;98.90;;;;;;4935253;29;20047;-86
2022/10/21 07:43:05;;;;;;;22.88;20.25;;;18.50;98.10;;;;;;4917081;29;20493;-85
2022/10/21 07:45:31;;;;;;;27.38;22.33;;;18.70;98.30;;;;;;4916786;29;20040;-87
2022/10/21 07:47:57;;;;;;;31.85;26.25;;;18.90;97.70;;;;;;4933819;29;20044;-87
2022/10/21 07:50:23;;;;;;;26.33;23.60;;;19.10;97.50;;;;;;4915316;29;20040;-83
2022/10/21 07:52:49;;;;;;;24.60;21.95;;;19.10;97.10;;;;;;4934428;29;20039;-85
2022/10/21 07:55:16;;;;;;;28.27;23.50;;;19.10;97.20;;;;;;4931634;29;20385;-83
2022/10/21 07:57:42;;;;;;;25.70;23.02;;;19.30;97.30;;;;;;4918669;29;20420;-86
2022/10/21 08:00:09;;;;;;;24.63;21.17;;;19.40;97.00;;;;;;4933552;28;20031;-88
2022/10/21 08:02:36;;;;;;;22.88;20.33;;;19.60;96.20;;;;;;4919242;29;20035;-89
2022/10/21 08:05:02;;;;;;;22.42;18.60;;;19.50;95.60;;;;;;4933161;29;20484;-86
2022/10/21 08:07:30;;;;;;;24.80;22.40;;;19.40;96.40;;;;;;4950457;29;20054;-92
2022/10/21 08:09:56;;;;;;;27.13;24.55;;;19.70;95.80;;;;;;4931916;29;20028;-92
2022/10/21 08:12:22;;;;;;;24.80;22.38;;;19.90;95.50;;;;;;4918948;29;20031;-92
2022/10/21 08:14:49;;;;;;;25.25;22.45;;;20.20;95.50;;;;;;4941471;29;20046;-92
2022/10/21 08:17:15;;;;;;;26.98;24.20;;;20.30;94.60;;;;;;4937093;28;20032;-92
2022/10/21 08:19:41;;;;;;;26.50;24.02;;;20.30;94.30;;;;;;4935233;29;20040;-89
2022/10/21 08:22:07;;;;;;;27.52;22.25;;;20.20;94.20;;;;;;4943360;29;20385;-89
2022/10/21 08:24:33;;;;;;;23.55;21.02;;;20.00;94.30;;;;;;4934835;28;20062;-89
2022/10/21 08:26:59;;;;;;;23.65;21.20;;;19.90;94.50;;;;;;4949879;29;20413;-88
2022/10/21 08:29:26;;;;;;;24.95;20.52;;;19.80;95.00;;;;;;4946816;29;20208;-89
2022/10/21 08:31:52;;;;;;;25.95;21.85;;;19.80;95.00;;;;;;4938913;28;20501;-88
2022/10/21 08:34:18;;;;;;;22.27;19.92;;;19.80;95.00;;;;;;4949882;29;20067;-88
2022/10/21 08:36:44;;;;;;;26.48;23.23;;;19.90;94.80;;;;;;4946041;29;20028;-88
2022/10/21 08:39:10;;;;;;;29.45;24.52;;;19.80;94.60;;;;;;4934025;29;20042;-88
2022/10/21 08:41:55;;;;;;;29.50;27.00;;;19.90;94.50;;;;;;4940066;28;20047;-88
2022/10/21 08:44:33;;;;;;;31.80;28.50;;;20.00;94.20;;;;;;4950215;29;20047;-89
2022/10/21 08:47:33;;;;;;;28.08;25.50;;;20.20;94.20;;;;;;4947037;28;20088;-89
2022/10/21 08:50:00;;;;;;;28.75;25.85;;;20.40;93.90;;;;;;4924295;29;20024;-88
2022/10/21 08:52:38;;;;;;;28.67;25.70;;;20.60;93.60;;;;;;4935007;29;20040;-88
2022/10/21 08:55:20;;;;;;;28.90;26.02;;;20.50;93.50;;;;;;4926714;29;20038;-89
2022/10/21 08:57:50;;;;;;;32.13;28.85;;;20.50;93.10;;;;;;4935773;29;20496;-90
2022/10/21 09:00:21;;;;;;;29.10;26.15;;;20.30;93.20;;;;;;4933868;28;20028;-89
2022/10/21 09:03:02;;;;;;;27.30;24.65;;;20.20;93.30;;;;;;4919194;29;20039;-90
2022/10/21 09:05:48;;;;;;;27.17;24.65;;;20.20;93.40;;;;;;4951148;28;20062;-94
2022/10/21 09:09:03;;;;;;;30.05;22.27;;;20.10;93.50;;;;;;4940969;28;20028;-89
2022/10/21 09:11:31;;;;;;;30.13;24.70;;;20.00;93.70;;;;;;4893631;29;20056;-89
2022/10/21 09:14:16;;;;;;;27.27;22.83;;;20.00;93.50;;;;;;4883119;29;20172;-88
2022/10/21 09:16:45;;;;;;;30.60;25.45;;;20.00;93.70;;;;;;4901579;29;20032;-88
2022/10/21 09:19:46;;;;;;;27.00;24.08;;;20.00;93.60;;;;;;4883257;29;20032;-87
2022/10/21 09:22:21;;;;;;;25.67;23.13;;;19.90;93.60;;;;;;4842905;29;20049;-87
2022/10/21 09:25:12;;;;;;;25.65;22.33;;;19.90;93.90;;;;;;4843140;29;20053;-87
2022/10/21 09:27:38;;;;;;;24.67;21.73;;;20.00;94.00;;;;;;4822001;29;20040;-88
2022/10/21 09:30:05;;;;;;;26.38;21.33;;;20.00;93.90;;;;;;4844984;29;20052;-87
2022/10/21 09:32:36;;;;;;;27.23;20.45;;;20.00;93.80;;;;;;4845748;29;20042;-88
2022/10/21 09:35:24;;;;;;;26.88;21.70;;;20.00;94.30;;;;;;4831095;29;20511;-88
2022/10/21 09:38:13;;;;;;;24.15;20.13;;;20.10;94.10;;;;;;4859250;29;20037;-88
2022/10/21 09:40:39;;;;;;;28.30;23.17;;;20.10;94.00;;;;;;4841262;29;20056;-89
2022/10/21 09:43:05;;;;;;;27.20;23.08;;;20.10;94.20;;;;;;4836002;29;20046;-91
2022/10/21 09:45:35;;;;;;;25.95;23.10;;;20.10;93.80;;;;;;4845604;29;20408;-93
2022/10/21 09:48:20;;;;;;;32.03;25.58;;;20.10;93.80;;;;;;4854861;29;20046;-92
2022/10/21 09:50:55;;;;;;;30.83;25.70;;;20.10;93.80;;;;;;4877287;29;20034;-92
2022/10/21 09:53:31;;;;;;;27.98;24.98;;;20.20;93.60;;;;;;4853504;29;20049;-91
2022/10/21 09:56:05;;;;;;;26.13;23.23;;;20.20;93.80;;;;;;4884177;29;20183;-92
2022/10/21 09:58:37;;;;;;;28.23;25.42;;;20.30;94.10;;;;;;4900865;29;20047;-91
2022/10/21 10:01:04;;;;;;;24.88;22.58;;;20.30;93.50;;;;;;4953083;28;20032;-92
2022/10/21 10:03:35;;;;;;;27.95;25.42;;;20.30;92.90;;;;;;4916793;29;20031;-88
2022/10/21 10:06:03;;;;;;;29.40;23.60;;;20.40;92.70;;;;;;4942662;29;20039;-87
2022/10/21 10:08:39;;;;;;;28.30;24.08;;;20.40;92.40;;;;;;4942989;28;20044;-91
2022/10/21 10:11:08;;;;;;;27.92;25.05;;;20.50;91.90;;;;;;4948823;29;20051;-91
2022/10/21 10:13:38;;;;;;;26.23;23.52;;;20.50;91.70;;;;;;4937999;29;20036;-88
2022/10/21 10:16:25;;;;;;;28.38;24.20;;;20.50;91.40;;;;;;4920401;29;20040;-87
2022/10/21 10:19:18;;;;;;;28.70;25.85;;;20.60;91.40;;;;;;4935844;29;20024;-89
2022/10/21 10:21:46;;;;;;;32.40;29.23;;;20.60;91.20;;;;;;4945777;29;20481;-89
2022/10/21 10:24:17;;;;;;;25.52;23.10;;;20.60;91.20;;;;;;4929301;29;20052;-88
2022/10/21 10:26:43;;;;;;;32.20;29.10;;;20.70;91.70;;;;;;4952818;29;20369;-87
2022/10/21 10:29:25;;;;;;;32.53;29.33;;;20.70;90.90;;;;;;4918086;29;20031;-89
2022/10/21 10:31:56;;;;;;;33.03;30.33;;;20.70;91.20;;;;;;4932730;28;20036;-87
2022/10/21 10:34:23;;;;;;;;;;;20.80;91.00;;;;;;4934655;29;20039;-91
2022/10/21 10:36:49;;;;;;;32.78;29.77;;;20.70;90.00;;;;;;4933663;29;19922;-90
2022/10/21 10:39:22;;;;;;;30.75;27.58;;;20.70;90.30;;;;;;4944054;29;20043;-90
2022/10/21 10:41:48;;;;;;;32.10;29.33;;;20.70;90.30;;;;;;4949231;29;20417;-90
2022/10/21 10:44:30;;;;;;;38.30;34.25;;;20.60;90.30;;;;;;4936159;29;20048;-89
2022/10/21 10:46:57;;;;;;;33.83;31.38;;;20.60;90.80;;;;;;4921157;29;20043;-90
2022/10/21 10:49:23;;;;;;;34.03;31.30;;;20.70;90.40;;;;;;4915717;29;20024;-89
2022/10/21 10:52:08;;;;;;;35.90;32.90;;;20.70;90.40;;;;;;4924711;29;20161;-87
2022/10/21 10:54:35;;;;;;;36.42;33.92;;;20.70;90.60;;;;;;4926216;29;20108;-87
2022/10/21 10:57:08;;;;;;;35.72;33.03;;;20.80;90.60;;;;;;4940722;29;20653;-88
2022/10/21 10:59:40;;;;;;;32.50;29.08;;;20.80;90.80;;;;;;4941910;29;20059;-87
2022/10/21 11:02:10;;;;;;;41.97;38.67;;;20.80;90.00;;;;;;4926408;28;20027;-89
2022/10/21 11:04:39;;;;;;;33.63;30.67;;;20.80;90.10;;;;;;4940524;29;20056;-86
2022/10/21 11:07:24;;;;;;;33.38;30.63;;;20.90;90.10;;;;;;4942088;29;20395;-89
2022/10/21 11:09:51;;;;;;;32.40;29.27;;;20.90;90.30;;;;;;4935929;29;20047;-91
2022/10/21 11:12:22;;;;;;;35.05;32.50;;;20.90;90.40;;;;;;4930440;29;20381;-87
2022/10/21 11:14:50;;;;;;;35.40;31.70;;;20.90;90.50;;;;;;4941257;29;20167;-89
2022/10/21 11:17:19;;;;;;;32.80;30.08;;;21.00;90.90;;;;;;4943699;28;20410;-89
2022/10/21 11:19:59;;;;;;;31.30;28.13;;;21.10;91.10;;;;;;4950340;29;20067;-90
2022/10/21 11:22:43;;;;;;;31.67;28.77;;;21.10;90.60;;;;;;4921729;29;20046;-89
2022/10/21 11:25:21;;;;;;;31.48;28.63;;;21.10;90.30;;;;;;4936420;29;20035;-88
2022/10/21 11:27:59;;;;;;;31.15;28.73;;;21.10;90.70;;;;;;4932730;29;20032;-89
2022/10/21 11:30:40;;;;;;;32.47;29.83;;;21.20;90.50;;;;;;4925895;28;20047;-87
2022/10/21 11:33:42;;;;;;;29.75;27.10;;;21.10;89.50;;;;;;4940575;29;20482;-92
2022/10/21 11:36:08;;;;;;;;;;;21.10;89.80;;;;;;4928701;29;20187;-92
2022/10/21 11:39:12;;;;;;;32.30;29.33;;;21.00;89.80;;;;;;4936182;29;19921;-92
2022/10/21 11:41:40;;;;;;;30.42;27.77;;;21.10;90.00;;;;;;4934210;29;20046;-88
2022/10/21 11:44:50;;;;;;;31.10;28.42;;;21.00;90.00;;;;;;4941440;28;20055;-90
2022/10/21 11:47:18;;;;;;;30.02;26.85;;;21.00;90.00;;;;;;4879237;29;20054;-91
2022/10/21 11:50:08;;;;;;;29.83;27.00;;;21.10;90.10;;;;;;4868775;29;20029;-89
2022/10/21 11:52:53;;;;;;;29.42;27.13;;;21.10;90.20;;;;;;4866968;29;20533;-89
2022/10/21 11:55:26;;;;;;;30.08;27.23;;;21.20;90.20;;;;;;4867609;29;20407;-89
2022/10/21 11:58:35;;;;;;;30.92;28.08;;;21.20;89.80;;;;;;4882156;29;20037;-89
2022/10/21 12:01:22;;;;;;;30.40;27.52;;;21.30;90.00;;;;;;4860441;29;20033;-89
2022/10/21 12:04:25;;;;;;;28.40;25.77;;;21.30;88.70;;;;;;4881942;29;20673;-89
2022/10/21 12:07:16;;;;;;;32.55;29.60;;;21.40;90.00;;;;;;4867495;29;20123;-89
2022/10/21 12:09:58;;;;;;;32.42;29.48;;;21.50;89.30;;;;;;4852302;29;20048;-89
2022/10/21 12:12:35;;;;;;;32.88;30.20;;;21.50;87.60;;;;;;4851606;29;20265;-89
2022/10/21 12:15:31;;;;;;;33.78;31.23;;;21.60;88.60;;;;;;4867452;29;20043;-88
2022/10/21 12:17:57;;;;;;;36.10;33.58;;;21.70;89.00;;;;;;4875521;29;20044;-89
2022/10/21 12:20:25;;;;;;;37.10;33.65;;;21.60;87.70;;;;;;4884295;29;20037;-90
2022/10/21 12:23:03;;;;;;;35.53;32.83;;;21.60;87.10;;;;;;4888952;29;20044;-89
2022/10/21 12:25:41;;;;;;;38.47;35.72;;;21.60;86.60;;;;;;4940173;28;20047;-88
2022/10/21 12:28:14;;;;;;;28.52;26.23;;;21.60;85.60;;;;;;4941043;29;20421;-89
2022/10/21 12:30:49;;;;;;;32.05;29.05;;;21.60;86.80;;;;;;4939980;28;20393;-89
2022/10/21 12:33:19;;;;;;;33.90;31.70;;;21.60;85.60;;;;;;4940949;28;20039;-90
2022/10/21 12:35:45;;;;;;;32.15;29.52;;;21.60;84.90;;;;;;4941166;29;20516;-89
2022/10/21 12:38:45;;;;;;;32.60;29.80;;;21.50;84.20;;;;;;4942615;28;20051;-89
2022/10/21 12:41:28;;;;;;;31.45;28.55;;;21.50;85.30;;;;;;4940205;29;20039;-90
2022/10/21 12:44:00;;;;;;;31.15;28.35;;;21.50;85.80;;;;;;4942195;29;20023;-93
2022/10/21 12:46:29;;;;;;;31.25;28.88;;;21.50;86.10;;;;;;4927606;28;20052;-90
2022/10/21 12:48:55;;;;;;;30.23;27.80;;;21.50;86.20;;;;;;4942718;29;20504;-91